Spring Hill, Kansas
Current Conditions -  °F | °C
As of 2:53 PM on Monday 24 Nov 2014 (Local Time) from KIXD Reporting Station
Broken Clouds Broken Clouds  
Wind Chill: 28°   Ceiling: 3700
Heat Index: 37°   Visibility: 10mi
Dew Point: 23°   Wind: 15mph
Humidity: 57%   Direction: 280°W
Pressure: 29.86"   Gusts: NA
Location:  38.74°N, 94.83°W
Report Text: KIXD 242053Z 28013KT 10SM BKN037 03/M05 A2986 RMK AO2 SLP116 T00281050 51022
Loading
Personal Weather Stations






























Interactive Weather Map New forecast layout! Learn more

10-Day Weather Forecast

Advertisements
Track Severe Weather on mobile